createdAt,value
2016-03-22T00:00:58.345Z,74.85
2016-03-22T00:01:58.332Z,74.85
2016-03-22T00:02:58.334Z,74.66
2016-03-22T00:03:58.370Z,74.66
2016-03-22T00:04:58.309Z,74.75
2016-03-22T00:05:58.311Z,74.85
2016-03-22T00:06:58.315Z,74.85
2016-03-22T00:07:58.302Z,74.85
2016-03-22T00:08:58.288Z,74.94
2016-03-22T00:09:58.291Z,75.13
2016-03-22T00:10:58.278Z,74.85
2016-03-22T00:11:58.281Z,74.18
2016-03-22T00:12:58.269Z,74.37
2016-03-22T00:13:58.255Z,74.18
2016-03-22T00:14:58.241Z,74.37
2016-03-22T00:15:58.245Z,74.18
2016-03-22T00:16:58.232Z,74.18
2016-03-22T00:17:58.218Z,74.18
2016-03-22T00:18:58.222Z,74.18
2016-03-22T00:19:58.209Z,74.27
2016-03-22T00:20:58.196Z,74.37
2016-03-22T00:21:58.215Z,74.27
2016-03-22T00:22:58.201Z,73.61
2016-03-22T00:23:58.188Z,74.18
2016-03-22T00:24:58.191Z,74.18
2016-03-22T00:25:58.178Z,74.31
2016-03-22T00:26:58.181Z,74.27
2016-03-22T00:27:58.168Z,73.9
2016-03-22T00:28:58.170Z,74.08
2016-03-22T00:29:58.142Z,74.27
2016-03-22T00:30:58.144Z,74.47
2016-03-22T00:31:58.162Z,74.18
2016-03-22T00:32:58.805Z,74.51
2016-03-22T00:33:58.527Z,74.47
2016-03-22T00:34:58.108Z,74.69
2016-03-22T00:35:59.422Z,74.08
2016-03-22T00:36:58.097Z,74.27
2016-03-22T00:37:58.099Z,74.18
2016-03-22T00:38:57.963Z,73.9
2016-03-22T00:39:58.090Z,74.37
2016-03-22T00:40:58.265Z,74.27
2016-03-22T00:41:58.079Z,74.18
2016-03-22T00:43:58.054Z,74.08
2016-03-22T00:44:58.196Z,74.08
2016-03-22T00:45:58.043Z,73.99
2016-03-22T00:46:58.890Z,74.75
2016-03-22T00:47:58.034Z,73.9
2016-03-22T00:48:58.036Z,73.9
2016-03-22T00:49:58.023Z,73.71
2016-03-22T00:50:58.010Z,74.08
2016-03-22T00:52:59.234Z,74.47
2016-03-22T00:53:58.830Z,74.47
2016-03-22T00:54:58.099Z,74.66
2016-03-22T00:55:59.039Z,73.71
2016-03-22T00:56:57.979Z,73.61
2016-03-22T00:57:58.060Z,73.42
2016-03-22T00:58:57.953Z,73.33
2016-03-22T00:59:57.940Z,73.61
2016-03-22T01:00:57.944Z,73.8
2016-03-22T01:02:12.119Z,73.8
2016-03-22T01:02:57.932Z,73.9
2016-03-22T01:03:58.389Z,73.8
2016-03-22T01:04:58.282Z,73.42
2016-03-22T01:05:57.910Z,73.52
2016-03-22T01:06:58.256Z,73.8
2016-03-22T01:07:57.899Z,73.8
2016-03-22T01:08:57.902Z,73.9
2016-03-22T01:09:57.874Z,73.61
2016-03-22T01:10:57.876Z,73.42
2016-03-22T01:11:57.863Z,73.52
2016-03-22T01:12:57.866Z,73.61
2016-03-22T01:13:57.853Z,73.52
2016-03-22T01:14:57.857Z,73.52
2016-03-22T01:15:57.843Z,73.71
2016-03-22T01:16:57.846Z,73.71
2016-03-22T01:17:57.832Z,73.71
2016-03-22T01:18:57.835Z,73.9
2016-03-22T01:19:57.822Z,73.42
2016-03-22T01:20:57.825Z,73.42
2016-03-22T01:21:57.796Z,73.33
2016-03-22T01:22:57.798Z,73.52
2016-03-22T01:23:57.802Z,73.42
2016-03-22T01:24:57.789Z,73.42
2016-03-22T01:25:57.791Z,73.52
2016-03-22T01:26:57.779Z,73.61
2016-03-22T01:27:57.781Z,73.71
2016-03-22T01:28:57.753Z,73.71
2016-03-22T01:29:57.755Z,73.52
2016-03-22T01:30:57.758Z,73.71
2016-03-22T01:31:57.745Z,73.52
2016-03-22T01:32:57.717Z,73.52
2016-03-22T01:33:57.735Z,73.42
2016-03-22T01:34:57.722Z,73.71
2016-03-22T01:35:57.709Z,73.14
2016-03-22T01:36:57.711Z,73.42
2016-03-22T01:37:57.699Z,73.04
2016-03-22T01:38:57.685Z,73.14
2016-03-22T01:39:57.689Z,72.95
2016-03-22T01:40:57.691Z,73.33
2016-03-22T01:41:57.679Z,73.14
2016-03-22T01:42:57.665Z,72.85
2016-03-22T01:43:57.668Z,72.85
2016-03-22T01:44:57.655Z,73.52
2016-03-22T01:45:57.642Z,73.14
2016-03-22T01:46:57.645Z,73.23
2016-03-22T01:47:57.631Z,73.42
2016-03-22T01:48:57.635Z,73.33
2016-03-22T01:49:57.637Z,73.36
2016-03-22T01:50:57.609Z,73.42
2016-03-22T01:51:59.002Z,73.23
2016-03-22T01:52:58.833Z,73.42
2016-03-22T01:53:58.179Z,73.52
2016-03-22T01:54:57.589Z,72.95
2016-03-22T01:55:57.575Z,73.14
2016-03-22T01:56:57.562Z,72.95
2016-03-22T01:57:57.577Z,72.95
2016-03-22T01:58:57.785Z,72.95
2016-03-22T01:59:57.525Z,73.04
2016-03-22T02:00:57.498Z,73.42
2016-03-22T02:01:57.487Z,73.23
2016-03-22T02:02:57.698Z,73.14
2016-03-22T02:03:57.992Z,73.14
2016-03-22T02:04:57.458Z,73.23
2016-03-22T02:05:57.441Z,73.42
2016-03-22T02:06:57.422Z,73.14
2016-03-22T02:07:57.421Z,73.14
2016-03-22T02:08:57.408Z,73.52
2016-03-22T02:09:57.392Z,73.33
2016-03-22T02:10:57.987Z,73.23
2016-03-22T02:11:57.489Z,72.89
2016-03-22T02:12:57.365Z,72.85
2016-03-22T02:13:57.366Z,73.04
2016-03-22T02:14:57.352Z,72.95
2016-03-22T02:15:57.339Z,72.95
2016-03-22T02:16:57.356Z,72.95
2016-03-22T02:17:57.578Z,72.85
2016-03-22T02:18:57.346Z,72.95
2016-03-22T02:19:57.317Z,72.85
2016-03-22T02:20:57.320Z,72.85
2016-03-22T02:21:58.104Z,73.04
2016-03-22T02:23:58.125Z,72.75
2016-03-22T02:24:57.394Z,72.95
2016-03-22T02:25:57.286Z,73.04
2016-03-22T02:26:57.289Z,73.04
2016-03-22T02:27:57.261Z,72.85
2016-03-22T02:28:57.263Z,72.85
2016-03-22T02:29:57.250Z,72.85
2016-03-22T02:30:57.243Z,72.75
2016-03-22T02:31:57.245Z,72.85
2016-03-22T02:32:57.232Z,72.66
2016-03-22T02:33:57.219Z,73.04
2016-03-22T02:34:57.221Z,72.85
2016-03-22T02:35:57.210Z,72.85
2016-03-22T02:36:57.196Z,72.75
2016-03-22T02:37:57.198Z,72.66
2016-03-22T02:38:57.201Z,73.04
2016-03-22T02:39:57.189Z,72.85
2016-03-22T02:40:57.175Z,72.95
2016-03-22T02:41:57.179Z,73.33
2016-03-22T02:42:57.165Z,73.23
2016-03-22T02:43:57.167Z,73.14
2016-03-22T02:44:57.156Z,73.04
2016-03-22T02:45:57.158Z,73.04
2016-03-22T02:46:57.144Z,73.04
2016-03-22T02:47:57.147Z,72.56
2016-03-22T02:48:57.134Z,72.28
2016-03-22T02:49:57.122Z,72.47
2016-03-22T02:50:57.125Z,72.47
2016-03-22T02:51:57.111Z,72.47
2016-03-22T02:52:57.099Z,72.09
2016-03-22T02:53:57.102Z,72.47
2016-03-22T02:54:57.088Z,72
2016-03-22T02:55:57.075Z,72.38
2016-03-22T02:56:57.063Z,72.56
2016-03-22T02:57:57.066Z,72.47
2016-03-22T02:58:57.052Z,72.47
2016-03-22T02:59:57.071Z,72.51
2016-03-22T03:00:57.041Z,72.75
2016-03-22T03:01:57.044Z,72.47
2016-03-22T03:02:57.047Z,72.47
2016-03-22T03:03:57.034Z,72.19
2016-03-22T03:04:57.021Z,72.09
2016-03-22T03:05:57.009Z,72.09
2016-03-22T03:06:56.996Z,72.19
2016-03-22T03:07:57.014Z,72.28
2016-03-22T03:08:57.001Z,72.19
2016-03-22T03:09:56.988Z,72.47
2016-03-22T03:11:58.478Z,72.09
2016-03-22T03:12:57.731Z,72.09
2016-03-22T03:13:56.967Z,72.09
2016-03-22T03:14:57.048Z,72
2016-03-22T03:15:57.051Z,72.19
2016-03-22T03:16:56.944Z,72
2016-03-22T03:17:57.385Z,72
2016-03-22T03:18:56.934Z,72
2016-03-22T03:19:56.983Z,72.09
2016-03-22T03:20:56.925Z,72.38
2016-03-22T03:21:57.489Z,72
2016-03-22T03:22:57.725Z,72.09
2016-03-22T03:23:57.307Z,72.09
2016-03-22T03:24:56.903Z,72.19
2016-03-22T03:25:56.874Z,72.19
2016-03-22T03:26:56.894Z,72.09
2016-03-22T03:27:57.068Z,72
2016-03-22T03:28:56.866Z,72.09
2016-03-22T03:30:11.044Z,72
2016-03-22T03:30:56.857Z,72.09
2016-03-22T03:32:56.831Z,72.38
2016-03-22T03:33:57.193Z,72.19
2016-03-22T03:34:57.024Z,72.19
2016-03-22T03:35:56.824Z,72.47
2016-03-22T03:36:57.107Z,72.28
2016-03-22T03:37:56.798Z,72.47
2016-03-22T03:38:56.801Z,72.38
2016-03-22T03:39:57.835Z,72.09
2016-03-22T03:40:56.774Z,72.47
2016-03-22T03:41:56.776Z,72.28
2016-03-22T03:42:56.765Z,72.28
2016-03-22T03:43:57.657Z,72.56
2016-03-22T03:44:56.754Z,72.09
2016-03-22T03:45:56.756Z,72.28
2016-03-22T03:46:56.744Z,72
2016-03-22T03:47:56.747Z,72
2016-03-22T03:48:56.734Z,72.09
2016-03-22T03:49:56.720Z,71.62
2016-03-22T03:50:56.722Z,71.71
2016-03-22T03:51:56.711Z,71.9
2016-03-22T03:52:56.713Z,71.81
2016-03-22T03:53:56.700Z,71.62
2016-03-22T03:54:56.703Z,71.9
2016-03-22T03:55:56.689Z,71.52
2016-03-22T03:56:56.661Z,71.62
2016-03-22T03:57:56.680Z,71.62
2016-03-22T03:58:56.651Z,71.71
2016-03-22T03:59:56.654Z,72
2016-03-22T04:00:56.641Z,71.62
2016-03-22T04:01:56.643Z,71.52
2016-03-22T04:02:56.630Z,71.62
2016-03-22T04:03:56.649Z,71.43
2016-03-22T04:04:56.620Z,71.9
2016-03-22T04:05:56.623Z,71.43
2016-03-22T04:06:56.626Z,72.19
2016-03-22T04:07:56.597Z,71.23
2016-03-22T04:08:56.599Z,71.9
2016-03-22T04:09:56.587Z,71.43
2016-03-22T04:10:56.573Z,71.62
2016-03-22T04:11:56.576Z,71.04
2016-03-22T04:12:56.579Z,71.14
2016-03-22T04:13:56.567Z,71.04
2016-03-22T04:14:56.537Z,71.43
2016-03-22T04:15:56.540Z,71.23
2016-03-22T04:16:56.528Z,71.43
2016-03-22T04:17:56.530Z,71.43
2016-03-22T04:18:56.517Z,71.33
2016-03-22T04:19:56.520Z,71.33
2016-03-22T04:20:56.506Z,71.81
2016-03-22T04:21:56.510Z,71.81
2016-03-22T04:22:56.497Z,71.71
2016-03-22T04:23:56.483Z,71.71
2016-03-22T04:24:56.331Z,71.71
2016-03-22T04:25:56.489Z,71.33
2016-03-22T04:26:56.477Z,71.71
2016-03-22T04:27:56.463Z,71.43
2016-03-22T04:28:56.466Z,71.81
2016-03-22T04:30:57.238Z,71.62
2016-03-22T04:31:57.583Z,71.62
2016-03-22T04:32:56.429Z,71.81
2016-03-22T04:33:56.996Z,71.04
2016-03-22T04:34:56.935Z,71.71
2016-03-22T04:35:56.422Z,71.62
2016-03-22T04:36:56.409Z,71.58
2016-03-22T04:37:56.396Z,71.81
2016-03-22T04:38:56.399Z,71.81
2016-03-22T04:39:56.387Z,71.43
2016-03-22T04:40:57.186Z,71.71
2016-03-22T04:41:57.501Z,71.77
2016-03-22T04:42:56.925Z,71.39
2016-03-22T04:43:56.351Z,71.33
2016-03-22T04:44:56.509Z,71.23
2016-03-22T04:45:56.589Z,71.01
2016-03-22T04:46:56.327Z,70.92
2016-03-22T04:47:56.329Z,71.58
2016-03-22T04:48:56.332Z,71.01
2016-03-22T04:49:56.523Z,71.86
2016-03-22T04:50:56.306Z,71.67
2016-03-22T04:51:56.684Z,71.67
2016-03-22T04:52:56.281Z,71.58
2016-03-22T04:53:56.299Z,71.39
2016-03-22T04:54:56.270Z,71.86
2016-03-22T04:55:56.272Z,71.96
2016-03-22T04:56:56.276Z,71.86
2016-03-22T04:57:56.263Z,71.96
2016-03-22T04:58:56.406Z,72.06
2016-03-22T04:59:57.299Z,72.06
2016-03-22T05:00:57.177Z,72.06
2016-03-22T05:01:56.930Z,72.53
2016-03-22T05:02:56.229Z,72.25
2016-03-22T05:03:56.919Z,72.53
2016-03-22T05:04:56.203Z,72.53
2016-03-22T05:05:56.066Z,71.96
2016-03-22T05:06:56.193Z,72.15
2016-03-22T05:07:56.180Z,71.96
2016-03-22T05:08:56.183Z,72.15
2016-03-22T05:09:56.185Z,72.15
2016-03-22T05:10:56.157Z,72.06
2016-03-22T05:11:56.160Z,72.44
2016-03-22T05:12:56.162Z,72.15
2016-03-22T05:13:56.149Z,72.06
2016-03-22T05:14:56.137Z,72.06
2016-03-22T05:15:56.139Z,72.15
2016-03-22T05:16:56.112Z,72.53
2016-03-22T05:17:56.114Z,71.96
2016-03-22T05:18:56.117Z,72.15
2016-03-22T05:19:56.103Z,72.15
2016-03-22T05:20:56.090Z,71.96
2016-03-22T05:21:56.078Z,72.15
2016-03-22T05:22:56.095Z,72.44
2016-03-22T05:23:56.114Z,72.25
2016-03-22T05:24:56.085Z,72.25
2016-03-22T05:25:56.056Z,72.06
2016-03-22T05:26:56.075Z,71.96
2016-03-22T05:27:56.047Z,71.96
2016-03-22T05:28:56.034Z,72.06
2016-03-22T05:29:56.052Z,72.28
2016-03-22T05:30:56.024Z,72
2016-03-22T05:31:56.010Z,72.09
2016-03-22T05:32:55.997Z,71.48
2016-03-22T05:33:56.000Z,71.71
2016-03-22T05:34:55.987Z,71.71
2016-03-22T05:35:55.991Z,71.9
2016-03-22T05:36:56.241Z,71.9
2016-03-22T05:37:55.958Z,71.62
2016-03-22T05:38:55.962Z,71.43
2016-03-22T05:39:57.249Z,71.71
2016-03-22T05:40:55.928Z,71.71
2016-03-22T05:41:55.916Z,72
2016-03-22T05:42:55.919Z,71.14
2016-03-22T05:43:55.922Z,71.62
2016-03-22T05:44:55.908Z,71.33
2016-03-22T05:45:55.896Z,71.23
2016-03-22T05:46:55.727Z,71.04
2016-03-22T05:47:55.885Z,71.71
2016-03-22T05:49:55.875Z,71.23
2016-03-22T05:50:55.877Z,70.86
2016-03-22T05:51:56.459Z,70.76
2016-03-22T05:52:55.836Z,70.86
2016-03-22T05:53:55.855Z,70.76
2016-03-22T05:54:56.076Z,71.04
2016-03-22T05:55:55.829Z,71.14
2016-03-22T05:56:55.816Z,71.08
2016-03-22T05:57:55.818Z,70.86
2016-03-22T05:58:56.447Z,70.67
2016-03-22T05:59:56.605Z,70.86
2016-03-22T06:00:55.796Z,70.61
2016-03-22T06:01:55.798Z,70.79
2016-03-22T06:02:56.817Z,70.23
2016-03-22T06:03:55.788Z,70.13
2016-03-22T06:04:55.775Z,70.42
2016-03-22T06:05:55.762Z,70.42
2016-03-22T06:06:55.765Z,70.42
2016-03-22T06:09:09.926Z,70.04
2016-03-22T06:10:55.729Z,69.75
2016-03-22T06:11:56.137Z,69.85
2016-03-22T06:12:56.077Z,70.13
2016-03-22T06:13:55.706Z,70.32
2016-03-22T06:14:55.708Z,69.56
2016-03-22T06:15:55.711Z,69.69
2016-03-22T06:16:55.697Z,69.56
2016-03-22T06:17:56.888Z,70.07
2016-03-22T06:18:55.796Z,69.88
2016-03-22T06:19:55.690Z,69.21
2016-03-22T06:20:55.725Z,69.41
2016-03-22T06:21:55.680Z,69.12
2016-03-22T06:22:55.667Z,69.41
2016-03-22T06:23:55.669Z,69.12
2016-03-22T06:24:55.657Z,69.21
2016-03-22T06:25:55.660Z,69.21
2016-03-22T06:26:55.631Z,68.49
2016-03-22T06:27:55.649Z,68.01
2016-03-22T06:28:55.620Z,67.73
2016-03-22T06:29:55.624Z,67.29
2016-03-22T06:30:55.626Z,67.29
2016-03-22T06:31:55.613Z,67.19
2016-03-22T06:32:55.616Z,66.66
2016-03-22T06:33:55.618Z,66.46
2016-03-22T06:34:55.621Z,65.45
2016-03-22T06:35:55.608Z,64.87
2016-03-22T06:36:55.612Z,63.29
2016-03-22T06:37:55.598Z,63.48
2016-03-22T06:38:55.601Z,62.43
2016-03-22T06:39:55.603Z,62.52
2016-03-22T06:40:55.606Z,61.89
2016-03-22T06:41:55.593Z,61.41
2016-03-22T06:42:55.611Z,61.22
2016-03-22T06:43:55.599Z,60.72
2016-03-22T06:44:55.601Z,60.84
2016-03-22T06:45:55.589Z,60.75
2016-03-22T06:46:55.591Z,61.04
2016-03-22T06:47:55.609Z,60.27
2016-03-22T06:48:55.580Z,59.89
2016-03-22T06:49:55.583Z,59.89
2016-03-22T06:50:55.585Z,59.7
2016-03-22T06:51:55.588Z,59.41
2016-03-22T06:52:55.576Z,59.7
2016-03-22T06:53:55.563Z,58.62
2016-03-22T06:54:55.566Z,59.19
2016-03-22T06:55:55.568Z,58.81
2016-03-22T06:56:55.571Z,58.72
2016-03-22T06:57:55.557Z,58.91
2016-03-22T06:58:55.577Z,59.09
2016-03-22T06:59:55.563Z,59.28
2016-03-22T07:00:55.566Z,58.81
2016-03-22T07:01:55.553Z,58.81
2016-03-22T07:02:55.556Z,58.72
2016-03-22T07:03:55.559Z,58.43
2016-03-22T07:04:55.561Z,58.52
2016-03-22T07:05:55.549Z,59.09
2016-03-22T07:06:55.551Z,58.43
2016-03-22T07:07:55.543Z,58.52
2016-03-22T07:08:56.264Z,58.33
2016-03-22T07:09:55.767Z,58.4
2016-03-22T07:10:55.536Z,58.02
2016-03-22T07:11:55.538Z,58.4
2016-03-22T07:12:55.542Z,58.4
2016-03-22T07:13:55.544Z,58.5
2016-03-22T07:14:55.937Z,58.78
2016-03-22T07:15:55.517Z,58.78
2016-03-22T07:16:55.536Z,58.78
2016-03-22T07:17:56.367Z,58.87
2016-03-22T07:18:56.572Z,59.06
2016-03-22T07:19:57.122Z,58.78
2016-03-22T07:20:55.515Z,58.97
2016-03-22T07:21:56.002Z,58.4
2016-03-22T07:22:55.505Z,58.59
2016-03-22T07:23:55.507Z,58.59
2016-03-22T07:24:55.495Z,58.47
2016-03-22T07:25:55.498Z,59.03
2016-03-22T07:27:56.487Z,58.37
2016-03-22T07:28:55.927Z,59.03
2016-03-22T07:29:55.477Z,58.56
2016-03-22T07:30:55.495Z,58.65
2016-03-22T07:31:55.482Z,58.75
2016-03-22T07:32:55.470Z,58.75
2016-03-22T07:33:55.487Z,58.65
2016-03-22T07:34:55.459Z,58.75
2016-03-22T07:35:55.462Z,58.65
2016-03-22T07:37:09.653Z,58.47
2016-03-22T07:37:55.795Z,58.56
2016-03-22T07:38:56.111Z,58.37
2016-03-22T07:39:55.739Z,58.37
2016-03-22T07:40:55.444Z,58.37
2016-03-22T07:41:55.494Z,58.28
2016-03-22T07:42:55.543Z,58.65
2016-03-22T07:43:55.453Z,58.65
2016-03-22T07:44:55.439Z,58.02
2016-03-22T07:45:55.442Z,58.75
2016-03-22T07:46:55.430Z,58.5
2016-03-22T07:47:55.432Z,58.4
2016-03-22T07:48:55.450Z,58.4
2016-03-22T07:49:55.437Z,58.11
2016-03-22T07:50:55.409Z,58.11
2016-03-22T07:51:55.411Z,57.92
2016-03-22T07:52:55.413Z,57.92
2016-03-22T07:53:55.416Z,57.64
2016-03-22T07:54:55.419Z,57.64
2016-03-22T07:55:55.406Z,57.64
2016-03-22T07:56:55.393Z,57.92
2016-03-22T07:57:55.396Z,57.73
2016-03-22T07:58:55.399Z,57.35
2016-03-22T07:59:55.432Z,57.89
2016-03-22T08:00:55.388Z,57.89
2016-03-22T08:01:55.376Z,57.7
2016-03-22T08:02:55.378Z,57.8
2016-03-22T08:03:55.381Z,57.7
2016-03-22T08:04:55.368Z,57.89
2016-03-22T08:05:55.370Z,57.42
2016-03-22T08:06:55.359Z,57.32
2016-03-22T08:07:55.361Z,57.51
2016-03-22T08:08:55.348Z,57.7
2016-03-22T08:09:55.366Z,57.54
2016-03-22T08:10:55.431Z,56.68
2016-03-22T08:11:55.356Z,57.26
2016-03-22T08:12:55.342Z,56.87
2016-03-22T08:13:55.345Z,56.49
2016-03-22T08:14:55.333Z,56.4
2016-03-22T08:15:55.335Z,56.3
2016-03-22T08:16:55.353Z,55.92
2016-03-22T08:17:55.325Z,56.4
2016-03-22T08:18:55.328Z,55.95
2016-03-22T08:19:55.330Z,55.95
2016-03-22T08:20:55.333Z,55.47
2016-03-22T08:21:55.319Z,55.28
2016-03-22T08:22:55.167Z,55
2016-03-22T08:23:55.294Z,54.9
2016-03-22T08:24:55.313Z,54.74
2016-03-22T08:25:55.299Z,53.88
2016-03-22T08:27:57.211Z,53.97
2016-03-22T08:28:56.902Z,53.69
2016-03-22T08:29:55.624Z,53.21
2016-03-22T08:30:55.298Z,53.78
2016-03-22T08:31:55.300Z,52.73
2016-03-22T08:32:55.740Z,53.02
2016-03-22T08:33:55.290Z,52.83
2016-03-22T08:34:55.292Z,53.02
2016-03-22T08:35:55.279Z,52.64
2016-03-22T08:36:56.813Z,52.16
2016-03-22T08:37:55.410Z,51.97
2016-03-22T08:38:56.022Z,51.68
2016-03-22T08:39:55.978Z,51.68
2016-03-22T08:40:55.278Z,51.68
2016-03-22T08:41:55.280Z,51.78
2016-03-22T08:42:55.267Z,51.97
2016-03-22T08:43:55.598Z,52.14
2016-03-22T08:44:55.273Z,51.95
2016-03-22T08:45:56.963Z,52.33
2016-03-22T08:47:09.449Z,51.85
2016-03-22T08:47:56.015Z,51.76
2016-03-22T08:48:55.267Z,52.04
2016-03-22T08:49:55.770Z,51.95
2016-03-22T08:50:55.727Z,51.85
2016-03-22T08:51:55.275Z,52.14
2016-03-22T08:52:55.278Z,51.66
2016-03-22T08:53:55.249Z,51.78
2016-03-22T08:54:55.253Z,51.88
2016-03-22T08:55:55.646Z,51.59
2016-03-22T08:57:55.246Z,51.5
2016-03-22T08:58:55.248Z,51.5
2016-03-22T08:59:55.610Z,51.5
2016-03-22T09:00:55.238Z,51.21
2016-03-22T09:01:55.241Z,51.4
2016-03-22T09:02:55.243Z,51.31
2016-03-22T09:03:55.245Z,51.59
2016-03-22T09:04:55.232Z,51.4
2016-03-22T09:05:55.235Z,51.4
2016-03-22T09:06:55.235Z,51.59
2016-03-22T09:07:55.222Z,51.21
2016-03-22T09:08:55.225Z,51.5
2016-03-22T09:09:55.228Z,51.21
2016-03-22T09:10:55.230Z,51.59
2016-03-22T09:11:55.217Z,51.5
2016-03-22T09:12:55.220Z,51.59
2016-03-22T09:13:55.208Z,51.4
2016-03-22T09:14:55.225Z,51.21
2016-03-22T09:15:55.197Z,51.02
2016-03-22T09:16:55.199Z,50.92
2016-03-22T09:17:55.202Z,50.85
2016-03-22T09:18:55.188Z,50.67
2016-03-22T09:19:55.192Z,50.28
2016-03-22T09:20:55.210Z,50.09
2016-03-22T09:21:55.196Z,50.18
2016-03-22T09:22:55.199Z,49.71
2016-03-22T09:23:55.202Z,49.71
2016-03-22T09:24:55.205Z,49.62
2016-03-22T09:25:55.192Z,49.62
2016-03-22T09:26:55.196Z,49.42
2016-03-22T09:27:55.198Z,49.23
2016-03-22T09:28:55.184Z,49.23
2016-03-22T09:29:55.187Z,49.23
2016-03-22T09:30:55.190Z,49.04
2016-03-22T09:31:55.177Z,48.85
2016-03-22T09:32:55.195Z,48.85
2016-03-22T09:33:55.167Z,49.04
2016-03-22T09:34:55.185Z,48.94
2016-03-22T09:35:55.172Z,49.04
2016-03-22T09:36:55.176Z,48.94
2016-03-22T09:37:55.178Z,48.94
2016-03-22T09:38:55.164Z,49.02
2016-03-22T09:39:55.167Z,48.94
2016-03-22T09:40:55.170Z,48.75
2016-03-22T09:41:55.158Z,48.94
2016-03-22T09:42:55.160Z,48.94
2016-03-22T09:43:55.163Z,48.75
2016-03-22T09:44:55.149Z,48.75
2016-03-22T09:45:55.997Z,48.75
2016-03-22T09:46:56.061Z,48.75
2016-03-22T09:47:55.642Z,48.75
2016-03-22T09:48:55.160Z,48.85
2016-03-22T09:49:55.491Z,48.85
2016-03-22T09:50:55.603Z,48.08
2016-03-22T09:51:55.152Z,48.18
2016-03-22T09:52:55.140Z,48.08
2016-03-22T09:53:55.158Z,48.18
2016-03-22T09:54:55.145Z,48.08
2016-03-22T09:55:55.727Z,48.08
2016-03-22T09:56:57.073Z,48.08
2016-03-22T09:57:55.138Z,47.99
2016-03-22T09:58:55.124Z,47.99
2016-03-22T09:59:55.143Z,47.99
2016-03-22T10:00:55.146Z,48.07
2016-03-22T10:01:55.461Z,48.25
2016-03-22T10:02:55.120Z,48.16
2016-03-22T10:03:55.123Z,48.35
2016-03-22T10:05:09.312Z,48.83
2016-03-22T10:05:55.129Z,48.73
2016-03-22T10:07:55.211Z,48.92
2016-03-22T10:08:55.465Z,48.83
2016-03-22T10:09:55.108Z,48.73
2016-03-22T10:10:55.111Z,48.63
2016-03-22T10:11:55.097Z,48.83
2016-03-22T10:12:55.116Z,49.11
2016-03-22T10:13:55.103Z,49.56
2016-03-22T10:14:55.762Z,49.56
2016-03-22T10:16:09.295Z,50.32
2016-03-22T10:16:55.111Z,50.71
2016-03-22T10:17:55.097Z,51.09
2016-03-22T10:18:55.694Z,51.56
2016-03-22T10:19:55.088Z,51.85
2016-03-22T10:20:55.090Z,51.85
2016-03-22T10:21:55.077Z,52.04
2016-03-22T10:22:55.096Z,52.04
2016-03-22T10:23:55.082Z,52.04
2016-03-22T10:24:55.085Z,52.71
2016-03-22T10:25:55.307Z,52.52
2016-03-22T10:26:55.075Z,52.8
2016-03-22T10:27:55.077Z,52.8
2016-03-22T10:28:55.065Z,52.83
2016-03-22T10:29:55.068Z,53.02
2016-03-22T10:30:55.070Z,53.02
2016-03-22T10:31:55.057Z,53.02
2016-03-22T10:32:55.060Z,53.12
2016-03-22T10:33:55.062Z,53.02
2016-03-22T10:34:55.050Z,52.92
2016-03-22T10:35:55.084Z,52.64
2016-03-22T10:36:55.056Z,52.45
2016-03-22T10:37:55.058Z,52.64
2016-03-22T10:38:55.045Z,52.73
2016-03-22T10:39:55.048Z,52.55
2016-03-22T10:40:55.050Z,52.64
2016-03-22T10:41:55.036Z,52.73
2016-03-22T10:42:55.039Z,52.64
2016-03-22T10:43:55.042Z,52.55
2016-03-22T10:44:55.045Z,52.73
2016-03-22T10:45:55.033Z,52.83
2016-03-22T10:46:55.035Z,52.45
2016-03-22T10:47:55.022Z,52.07
2016-03-22T10:48:55.025Z,51.97
2016-03-22T10:49:55.044Z,52.55
2016-03-22T10:50:55.014Z,52.55
2016-03-22T10:51:55.032Z,53.69
2016-03-22T10:52:55.019Z,53.5
2016-03-22T10:53:55.007Z,53.97
2016-03-22T10:54:55.025Z,54.17
2016-03-22T10:55:55.028Z,54.17
2016-03-22T10:56:54.999Z,54.07
2016-03-22T10:57:55.002Z,53.53
2016-03-22T10:58:55.004Z,53.43
2016-03-22T10:59:55.008Z,53.72
2016-03-22T11:00:54.995Z,52.79
2016-03-22T11:01:54.997Z,52.5
2016-03-22T11:02:55.001Z,52.03
2016-03-22T11:03:55.001Z,51.93
2016-03-22T11:04:55.779Z,51.45
2016-03-22T11:05:54.994Z,51.38
2016-03-22T11:06:54.990Z,50.71
2016-03-22T11:07:55.925Z,50.24
2016-03-22T11:08:54.969Z,49.85
2016-03-22T11:09:54.969Z,49.38
2016-03-22T11:10:54.954Z,49.38
2016-03-22T11:11:54.954Z,48.93
2016-03-22T11:12:54.940Z,48.64
2016-03-22T11:13:54.955Z,48.73
2016-03-22T11:14:54.943Z,48.35
2016-03-22T11:15:55.804Z,48.16
2016-03-22T11:16:56.274Z,48.07
2016-03-22T11:17:55.916Z,47.97
2016-03-22T11:18:55.169Z,47.68
2016-03-22T11:19:55.624Z,48.07
2016-03-22T11:20:54.938Z,47.85
2016-03-22T11:21:54.941Z,47.56
2016-03-22T11:22:55.084Z,47.47
2016-03-22T11:23:55.493Z,47.54
2016-03-22T11:24:55.340Z,47.82
2016-03-22T11:25:54.935Z,48.02
2016-03-22T11:27:09.579Z,47.82
2016-03-22T11:27:54.941Z,48.08
2016-03-22T11:28:54.943Z,48.28
2016-03-22T11:29:54.931Z,48.18
2016-03-22T11:30:54.948Z,48.28
2016-03-22T11:31:54.921Z,48.94
2016-03-22T11:32:54.939Z,48.94
2016-03-22T11:34:09.114Z,48.66
2016-03-22T11:34:55.241Z,48.57
2016-03-22T11:35:55.634Z,49.04
2016-03-22T11:36:55.387Z,48.75
2016-03-22T11:37:54.922Z,48.75
2016-03-22T11:38:55.236Z,48.85
2016-03-22T11:39:55.269Z,48.85
2016-03-22T11:40:54.914Z,48.85
2016-03-22T11:41:54.916Z,48.85
2016-03-22T11:42:54.919Z,48.85
2016-03-22T11:43:54.906Z,48.75
2016-03-22T11:44:54.924Z,48.66
2016-03-22T11:45:54.911Z,48.85
2016-03-22T11:46:54.914Z,48.85
2016-03-22T11:47:54.916Z,48.94
2016-03-22T11:48:54.888Z,49.13
2016-03-22T11:49:54.906Z,48.78
2016-03-22T11:50:54.894Z,48.88
2016-03-22T11:51:54.896Z,48.88
2016-03-22T11:52:54.899Z,48.11
2016-03-22T11:53:54.917Z,48.02
2016-03-22T11:54:54.904Z,47.92
2016-03-22T11:55:54.907Z,47.73
2016-03-22T11:56:54.894Z,47.54
2016-03-22T11:57:54.896Z,47.47
2016-03-22T11:58:54.915Z,47.47
2016-03-22T11:59:54.902Z,47.18
2016-03-22T12:00:54.889Z,46.99
2016-03-22T12:01:54.892Z,46.99
2016-03-22T12:02:54.879Z,46.99
2016-03-22T12:03:54.897Z,47.08
2016-03-22T12:04:54.884Z,47.27
2016-03-22T12:05:54.887Z,46.99
2016-03-22T12:06:54.874Z,46.8
2016-03-22T12:07:54.892Z,46.34
2016-03-22T12:08:54.894Z,46.15
2016-03-22T12:09:54.898Z,46.25
2016-03-22T12:10:54.869Z,45.98
2016-03-22T12:11:54.888Z,45.41
2016-03-22T12:12:54.875Z,45.03
2016-03-22T12:13:54.877Z,45.12
2016-03-22T12:14:54.880Z,44.67
2016-03-22T12:15:54.883Z,44.09
2016-03-22T12:16:54.885Z,43.9
2016-03-22T12:17:54.872Z,43.62
2016-03-22T12:18:54.874Z,43.43
2016-03-22T12:19:54.878Z,43.43
2016-03-22T12:20:54.896Z,43.14
2016-03-22T12:21:54.899Z,42.87
2016-03-22T12:22:54.886Z,42.3
2016-03-22T12:23:56.279Z,42.2
2016-03-22T12:24:56.673Z,42.11
2016-03-22T12:25:55.926Z,41.91
2016-03-22T12:26:54.881Z,41.91
2016-03-22T12:27:55.101Z,41.53
2016-03-22T12:28:54.917Z,41.15
2016-03-22T12:29:54.889Z,41.51
2016-03-22T12:30:55.064Z,41.89
2016-03-22T12:31:54.910Z,41.99
2016-03-22T12:32:54.897Z,41.89
2016-03-22T12:33:56.493Z,42.18
2016-03-22T12:34:54.902Z,42.76
2016-03-22T12:35:54.937Z,43.5
2016-03-22T12:36:54.892Z,43.88
2016-03-22T12:37:55.910Z,44.45
2016-03-22T12:38:54.898Z,44.43
2016-03-22T12:39:54.900Z,44.62
2016-03-22T12:40:54.887Z,45.1
2016-03-22T12:41:54.937Z,45.48
2016-03-22T12:42:55.455Z,45.96
2016-03-22T12:43:55.770Z,46.44
2016-03-22T12:44:54.929Z,47.39
2016-03-22T12:45:55.714Z,47.08
2016-03-22T12:46:54.903Z,47.37
2016-03-22T12:47:54.906Z,47.75
2016-03-22T12:48:54.909Z,48.04
2016-03-22T12:49:54.896Z,48.23
2016-03-22T12:50:54.914Z,48.13
2016-03-22T12:51:54.902Z,48.23
2016-03-22T12:52:54.889Z,48.23
2016-03-22T12:53:55.204Z,48.33
2016-03-22T12:54:55.596Z,48.33
2016-03-22T12:55:55.007Z,48.23
2016-03-22T12:56:54.884Z,47.85
2016-03-22T12:57:54.918Z,47.47
2016-03-22T12:58:54.904Z,47.47
2016-03-22T12:59:54.907Z,47.56
2016-03-22T13:00:54.894Z,47.63
2016-03-22T13:01:55.006Z,47.82
2016-03-22T13:02:54.884Z,47.63
2016-03-22T13:03:54.903Z,47.25
2016-03-22T13:04:54.889Z,47.06
2016-03-22T13:05:54.892Z,46.87
2016-03-22T13:06:54.895Z,47.16
2016-03-22T13:07:54.886Z,47.34
2016-03-22T13:08:54.906Z,47.25